createdAt,value
2018-07-11T00:00:41.440Z,92.60
2018-07-11T00:03:09.802Z,91.37
2018-07-11T00:05:38.089Z,92.01
2018-07-11T00:08:06.451Z,91.87
2018-07-11T00:10:35.155Z,91.26
2018-07-11T00:13:03.526Z,91.37
2018-07-11T00:15:31.923Z,91.05
2018-07-11T00:18:00.210Z,91.47
2018-07-11T00:20:28.517Z,92.61
2018-07-11T00:22:56.859Z,93.86
2018-07-11T00:25:25.187Z,93.67
2018-07-11T00:27:53.548Z,93.30
2018-07-11T00:30:22.149Z,92.84
2018-07-11T00:32:50.511Z,92.37
2018-07-11T00:35:18.810Z,93.26
2018-07-11T00:37:47.304Z,93.70
2018-07-11T00:40:15.619Z,93.66
2018-07-11T00:42:43.971Z,93.74
2018-07-11T00:45:12.292Z,93.79
2018-07-11T00:47:40.802Z,93.39
2018-07-11T00:50:09.176Z,93.49
2018-07-11T00:52:37.519Z,94.19
2018-07-11T00:55:06.148Z,94.18
2018-07-11T00:57:36.347Z,93.95
2018-07-11T01:00:04.648Z,94.06
2018-07-11T01:02:33.491Z,94.70
2018-07-11T01:05:01.815Z,94.63
2018-07-11T01:07:30.375Z,95.17
2018-07-11T01:09:58.773Z,95.50
2018-07-11T01:12:27.193Z,95.46
2018-07-11T01:14:55.498Z,95.53
2018-07-11T01:17:29.199Z,95.07
2018-07-11T01:19:57.496Z,94.96
2018-07-11T01:22:25.816Z,94.91
2018-07-11T01:24:54.102Z,94.66
2018-07-11T01:27:22.503Z,94.46
2018-07-11T01:29:50.805Z,93.61
2018-07-11T01:32:19.149Z,93.88
2018-07-11T01:34:47.460Z,93.91
2018-07-11T01:37:15.784Z,93.63
2018-07-11T01:39:44.110Z,93.38
2018-07-11T01:42:12.420Z,94.28
2018-07-11T01:44:40.740Z,94.37
2018-07-11T01:47:09.015Z,94.07
2018-07-11T01:49:37.338Z,93.99
2018-07-11T01:52:16.879Z,94.11
2018-07-11T01:54:45.245Z,94.06
2018-07-11T01:57:13.542Z,93.89
2018-07-11T01:59:41.883Z,94.07
2018-07-11T02:02:10.192Z,94.44
2018-07-11T02:04:39.993Z,94.01
2018-07-11T02:07:09.016Z,94.03
2018-07-11T02:09:37.534Z,93.92
2018-07-11T02:12:06.227Z,93.96
2018-07-11T02:14:35.579Z,93.90
2018-07-11T02:17:04.164Z,94.07
2018-07-11T02:19:32.502Z,94.32
2018-07-11T02:22:00.801Z,94.27
2018-07-11T02:24:29.198Z,94.35
2018-07-11T02:26:57.537Z,94.31
2018-07-11T02:29:26.378Z,94.20
2018-07-11T02:31:54.664Z,93.59
2018-07-11T02:34:28.247Z,92.94
2018-07-11T02:36:56.554Z,92.92
2018-07-11T02:39:24.908Z,92.84
2018-07-11T02:41:53.390Z,92.91
2018-07-11T02:44:21.787Z,92.35
2018-07-11T02:46:55.310Z,92.47
2018-07-11T02:49:23.715Z,93.03
2018-07-11T02:51:52.072Z,92.52
2018-07-11T02:54:20.410Z,93.00
2018-07-11T02:56:48.676Z,93.44
2018-07-11T02:59:16.990Z,93.64
2018-07-11T03:01:45.298Z,93.80
2018-07-11T03:04:13.747Z,93.85
2018-07-11T03:06:42.023Z,93.63
2018-07-11T03:09:10.335Z,93.40
2018-07-11T03:11:38.602Z,92.99
2018-07-11T03:14:06.930Z,93.35
2018-07-11T03:16:35.223Z,93.04
2018-07-11T03:19:03.559Z,93.30
2018-07-11T03:21:31.903Z,93.64
2018-07-11T03:24:00.214Z,93.88
2018-07-11T03:26:28.517Z,93.84
2018-07-11T03:28:56.953Z,93.68
2018-07-11T03:31:25.218Z,93.54
2018-07-11T03:33:53.547Z,93.63
2018-07-11T03:36:21.899Z,93.54
2018-07-11T03:38:50.159Z,93.65
2018-07-11T03:41:18.539Z,93.34
2018-07-11T03:43:46.935Z,92.94
2018-07-11T03:46:15.276Z,93.32
2018-07-11T03:48:43.557Z,93.08
2018-07-11T03:51:12.442Z,93.05
2018-07-11T03:53:40.836Z,93.71
2018-07-11T03:56:09.414Z,93.73
2018-07-11T03:58:37.738Z,93.76
2018-07-11T04:01:06.096Z,94.09
2018-07-11T04:03:34.387Z,93.71
2018-07-11T04:06:02.750Z,93.71
2018-07-11T04:08:31.028Z,93.54
2018-07-11T04:10:59.367Z,93.56
2018-07-11T04:13:27.638Z,93.47
2018-07-11T04:15:56.011Z,94.14
2018-07-11T04:18:27.482Z,94.73
2018-07-11T04:20:55.854Z,94.95
2018-07-11T04:23:24.350Z,94.59
2018-07-11T04:25:53.265Z,94.75
2018-07-11T04:28:21.627Z,94.84
2018-07-11T04:30:50.180Z,94.51
2018-07-11T04:33:18.536Z,94.25
2018-07-11T04:35:46.886Z,94.80
2018-07-11T04:38:15.238Z,95.36
2018-07-11T04:40:43.702Z,94.94
2018-07-11T04:43:12.382Z,94.72
2018-07-11T04:45:40.717Z,94.25
2018-07-11T04:48:09.353Z,93.82
2018-07-11T04:50:37.975Z,93.47
2018-07-11T04:53:08.477Z,93.72
2018-07-11T04:55:36.969Z,92.72
2018-07-11T04:58:05.400Z,92.17
2018-07-11T05:00:33.735Z,92.00
2018-07-11T05:03:02.012Z,92.32
2018-07-11T05:05:30.348Z,91.62
2018-07-11T05:07:58.625Z,91.12
2018-07-11T05:10:27.183Z,90.77
2018-07-11T05:12:55.510Z,90.71
2018-07-11T05:15:23.955Z,90.83
2018-07-11T05:17:52.575Z,90.91
2018-07-11T05:20:21.550Z,90.75
2018-07-11T05:22:50.278Z,90.88
2018-07-11T05:25:18.721Z,91.05
2018-07-11T05:27:47.283Z,90.57
2018-07-11T05:30:15.506Z,90.64
2018-07-11T05:32:43.767Z,91.07
2018-07-11T05:35:12.146Z,91.60
2018-07-11T05:37:40.412Z,92.39
2018-07-11T05:40:09.174Z,92.36
2018-07-11T05:42:37.675Z,91.53
2018-07-11T05:45:06.068Z,92.36
2018-07-11T05:47:34.400Z,91.57
2018-07-11T05:50:02.740Z,89.85
2018-07-11T05:52:31.013Z,89.65
2018-07-11T05:54:59.301Z,89.65
2018-07-11T05:57:27.974Z,88.60
2018-07-11T05:59:56.297Z,88.15
2018-07-11T06:02:24.662Z,91.11
2018-07-11T06:04:53.025Z,91.53
2018-07-11T06:07:21.335Z,89.15
2018-07-11T06:09:49.655Z,89.86
2018-07-11T06:12:18.056Z,89.91
2018-07-11T06:14:46.324Z,88.50
2018-07-11T06:17:14.667Z,89.47
2018-07-11T06:19:42.977Z,89.64
2018-07-11T06:22:11.307Z,91.06
2018-07-11T06:24:40.557Z,92.51
2018-07-11T06:27:12.747Z,92.09
2018-07-11T06:29:41.046Z,92.17
2018-07-11T06:32:10.627Z,91.87
2018-07-11T06:34:38.905Z,91.97
2018-07-11T06:37:07.928Z,91.38
2018-07-11T06:39:36.997Z,90.80
2018-07-11T06:42:05.519Z,91.23
2018-07-11T06:44:35.879Z,92.04
2018-07-11T06:47:09.707Z,92.96
2018-07-11T06:49:37.975Z,93.59
2018-07-11T06:52:06.449Z,92.73
2018-07-11T06:54:34.938Z,92.66
2018-07-11T06:57:03.268Z,92.74
2018-07-11T06:59:31.619Z,92.00
2018-07-11T07:01:59.942Z,92.67
2018-07-11T07:04:28.272Z,92.92
2018-07-11T07:06:56.643Z,92.78
2018-07-11T07:09:24.923Z,92.59
2018-07-11T07:11:53.227Z,92.12
2018-07-11T07:14:21.559Z,92.00
2018-07-11T07:16:50.024Z,91.55
2018-07-11T07:19:18.327Z,90.40
2018-07-11T07:21:47.233Z,90.50
2018-07-11T07:24:15.526Z,89.77
2018-07-11T07:26:43.888Z,90.47
2018-07-11T07:29:12.288Z,90.07
2018-07-11T07:31:40.746Z,89.42
2018-07-11T07:34:09.111Z,88.61
2018-07-11T07:36:37.594Z,88.25
2018-07-11T07:39:06.307Z,88.47
2018-07-11T07:41:34.633Z,88.22
2018-07-11T07:44:03.350Z,89.79
2018-07-11T07:46:31.767Z,89.47
2018-07-11T07:49:00.089Z,89.75
2018-07-11T07:51:28.441Z,89.49
2018-07-11T07:53:56.926Z,88.62
2018-07-11T07:56:25.291Z,87.79
2018-07-11T07:58:53.659Z,89.03
2018-07-11T08:01:21.980Z,88.58
2018-07-11T08:03:50.332Z,88.02
2018-07-11T08:06:18.661Z,87.50
2018-07-11T08:08:46.999Z,87.06
2018-07-11T08:11:15.612Z,86.94
2018-07-11T08:13:43.956Z,86.34
2018-07-11T08:16:12.356Z,86.19
2018-07-11T08:18:40.943Z,87.11
2018-07-11T08:21:09.340Z,85.95
2018-07-11T08:23:49.057Z,86.34
2018-07-11T08:26:28.930Z,86.99
2018-07-11T08:29:09.875Z,85.46
2018-07-11T08:31:50.486Z,86.06
2018-07-11T08:34:31.713Z,86.53
2018-07-11T08:37:20.724Z,85.68
2018-07-11T08:42:03.385Z,86.70
2018-07-11T08:44:49.637Z,86.78
2018-07-11T08:49:11.594Z,86.55
2018-07-11T08:51:51.661Z,85.87
2018-07-11T08:54:31.669Z,85.16
2018-07-11T08:58:09.491Z,85.12
2018-07-11T09:01:02.677Z,83.82
2018-07-11T09:05:48.593Z,85.10
2018-07-11T09:10:28.431Z,83.23
2018-07-11T09:13:03.786Z,81.73
2018-07-11T09:17:51.183Z,82.93
2018-07-11T09:20:41.277Z,82.10
2018-07-11T09:23:26.515Z,81.76
2018-07-11T09:25:54.954Z,80.79
2018-07-11T09:28:23.477Z,81.42
2018-07-11T09:30:51.819Z,80.62
2018-07-11T09:33:20.226Z,77.89
2018-07-11T09:35:48.528Z,79.76
2018-07-11T09:38:16.918Z,80.91
2018-07-11T09:40:45.254Z,80.76
2018-07-11T09:43:13.683Z,77.00
2018-07-11T09:45:42.143Z,79.47
2018-07-11T09:48:10.484Z,78.80
2018-07-11T09:50:39.047Z,80.68
2018-07-11T09:53:07.469Z,80.22
2018-07-11T09:55:35.830Z,79.03
2018-07-11T09:58:05.267Z,78.43
2018-07-11T10:00:39.027Z,78.17
2018-07-11T10:03:07.475Z,78.32
2018-07-11T10:05:35.828Z,75.50
2018-07-11T10:08:06.903Z,75.82
2018-07-11T10:10:35.286Z,74.38
2018-07-11T10:13:03.731Z,72.82
2018-07-11T10:15:32.147Z,74.21
2018-07-11T10:18:00.531Z,72.24
2018-07-11T10:20:29.000Z,71.27
2018-07-11T10:22:57.281Z,71.50
2018-07-11T10:25:25.604Z,69.43
2018-07-11T10:28:05.316Z,71.00
2018-07-11T10:30:33.724Z,68.85
2018-07-11T10:33:02.205Z,67.67
2018-07-11T10:35:30.605Z,69.03
2018-07-11T10:37:58.916Z,70.18
2018-07-11T10:40:27.234Z,69.76
2018-07-11T10:42:55.591Z,69.24
2018-07-11T10:45:23.997Z,70.11
2018-07-11T10:47:52.415Z,70.06
2018-07-11T10:50:20.834Z,68.63
2018-07-11T10:52:49.207Z,70.56
2018-07-11T10:55:17.632Z,69.52
2018-07-11T10:57:46.157Z,68.32
2018-07-11T11:00:35.967Z,66.99
2018-07-11T11:02:44.452Z,67.54
2018-07-11T11:05:12.748Z,66.27
2018-07-11T11:07:41.094Z,67.62
2018-07-11T11:10:09.414Z,68.17
2018-07-11T11:12:37.734Z,66.37
2018-07-11T11:15:06.224Z,67.80
2018-07-11T11:17:34.544Z,66.19
2018-07-11T11:20:02.998Z,65.77
2018-07-11T11:22:31.793Z,65.98
2018-07-11T11:25:00.713Z,63.87
2018-07-11T11:27:29.410Z,65.24
2018-07-11T11:29:57.811Z,62.53
2018-07-11T11:32:26.172Z,61.48
2018-07-11T11:34:54.557Z,61.45
2018-07-11T11:37:22.932Z,62.23
2018-07-11T11:39:51.492Z,62.18
2018-07-11T11:42:20.199Z,63.14
2018-07-11T11:44:48.579Z,64.72
2018-07-11T11:47:20.291Z,66.04
2018-07-11T11:49:48.599Z,66.67
2018-07-11T11:52:16.976Z,66.00
2018-07-11T11:54:45.328Z,65.12
2018-07-11T11:57:13.631Z,64.56
2018-07-11T11:59:41.991Z,63.69
2018-07-11T12:02:10.270Z,62.82
2018-07-11T12:04:38.554Z,62.78
2018-07-11T12:07:06.956Z,63.48
2018-07-11T12:09:35.667Z,62.99
2018-07-11T12:12:04.391Z,63.46
2018-07-11T12:14:34.762Z,65.39
2018-07-11T12:17:03.077Z,62.17
2018-07-11T12:19:31.371Z,61.10
2018-07-11T12:21:59.715Z,63.96
2018-07-11T12:24:28.067Z,60.97
2018-07-11T12:26:56.370Z,62.68
2018-07-11T12:29:24.693Z,61.86
2018-07-11T12:31:53.011Z,62.61
2018-07-11T12:34:21.446Z,60.50
2018-07-11T12:36:49.871Z,62.06
2018-07-11T12:39:19.131Z,62.66
2018-07-11T12:41:47.511Z,63.26
2018-07-11T12:44:15.812Z,62.76
2018-07-11T12:46:44.702Z,63.30
2018-07-11T12:49:13.349Z,63.54
2018-07-11T12:51:41.710Z,64.76
2018-07-11T12:54:10.006Z,64.14
2018-07-11T12:56:38.677Z,63.18
2018-07-11T12:59:07.070Z,64.68
2018-07-11T13:01:35.417Z,64.42
2018-07-11T13:04:03.790Z,64.18
2018-07-11T13:06:32.108Z,63.89
2018-07-11T13:09:00.394Z,64.99
2018-07-11T13:11:28.743Z,64.38
2018-07-11T13:13:57.014Z,65.73
2018-07-11T13:16:25.359Z,65.82
2018-07-11T13:18:53.634Z,65.35
2018-07-11T13:21:21.974Z,65.38
2018-07-11T13:23:50.268Z,65.96
2018-07-11T13:26:18.624Z,66.84
2018-07-11T13:28:46.923Z,67.36
2018-07-11T13:31:15.418Z,65.90
2018-07-11T13:33:43.967Z,65.11
2018-07-11T13:36:12.318Z,63.74
2018-07-11T13:38:40.622Z,61.47
2018-07-11T13:41:09.004Z,63.96
2018-07-11T13:43:37.450Z,63.86
2018-07-11T13:46:05.722Z,63.93
2018-07-11T13:48:34.040Z,62.57
2018-07-11T13:51:02.332Z,64.28
2018-07-11T13:53:32.384Z,62.53
2018-07-11T13:56:00.676Z,62.57
2018-07-11T13:58:29.132Z,63.73
2018-07-11T14:00:57.511Z,63.44
2018-07-11T14:03:25.844Z,64.77
2018-07-11T14:05:57.508Z,64.04
2018-07-11T14:08:27.216Z,64.59
2018-07-11T14:10:56.422Z,66.15
2018-07-11T14:13:31.440Z,65.81
2018-07-11T14:15:59.894Z,65.12
2018-07-11T14:18:28.373Z,62.78
2018-07-11T14:20:56.999Z,63.31
2018-07-11T14:23:36.810Z,63.80
2018-07-11T14:26:05.312Z,64.21
2018-07-11T14:28:34.160Z,65.23
2018-07-11T14:31:04.295Z,63.39
2018-07-11T14:33:33.422Z,65.74
2018-07-11T14:36:04.066Z,64.72
2018-07-11T14:38:32.790Z,65.80
2018-07-11T14:41:02.333Z,65.68
2018-07-11T14:43:30.827Z,65.42
2018-07-11T14:45:59.135Z,66.34
2018-07-11T14:48:30.203Z,66.58
2018-07-11T14:50:59.918Z,67.75
2018-07-11T14:53:28.322Z,68.56
2018-07-11T14:55:56.656Z,68.72
2018-07-11T14:58:25.302Z,68.60
2018-07-11T15:00:53.648Z,69.64
2018-07-11T15:03:21.966Z,70.21
2018-07-11T15:05:50.258Z,70.04
2018-07-11T15:08:18.885Z,70.09
2018-07-11T15:10:47.221Z,70.68
2018-07-11T15:13:15.562Z,70.82
2018-07-11T15:15:43.916Z,71.94
2018-07-11T15:18:12.283Z,72.06
2018-07-11T15:20:40.867Z,71.96
2018-07-11T15:23:09.208Z,71.76
2018-07-11T15:25:37.681Z,72.17
2018-07-11T15:28:06.362Z,72.57
2018-07-11T15:30:34.690Z,72.93
2018-07-11T15:33:03.087Z,73.39
2018-07-11T15:35:31.500Z,73.15
2018-07-11T15:38:00.449Z,72.86
2018-07-11T15:40:29.470Z,73.78
2018-07-11T15:42:57.848Z,74.02
2018-07-11T15:45:26.334Z,73.61
2018-07-11T15:47:54.738Z,73.68
2018-07-11T15:50:23.141Z,73.96
2018-07-11T15:52:51.510Z,73.48
2018-07-11T15:55:20.226Z,74.53
2018-07-11T15:57:50.923Z,73.76
2018-07-11T16:00:20.194Z,74.36
2018-07-11T16:02:49.566Z,75.01
2018-07-11T16:05:23.284Z,75.38
2018-07-11T16:07:53.555Z,77.10
2018-07-11T16:10:28.835Z,76.67
2018-07-11T16:12:57.262Z,77.93
2018-07-11T16:15:25.639Z,78.22
2018-07-11T16:17:54.031Z,77.51
2018-07-11T16:20:22.666Z,78.60
2018-07-11T16:22:51.127Z,78.91
2018-07-11T16:25:19.620Z,79.32
2018-07-11T16:27:48.512Z,79.87
2018-07-11T16:30:16.910Z,80.58
2018-07-11T16:32:45.324Z,80.76
2018-07-11T16:35:13.712Z,83.00
2018-07-11T16:37:42.279Z,83.04
2018-07-11T16:40:10.819Z,82.30
2018-07-11T16:42:39.164Z,83.17
2018-07-11T16:45:07.530Z,82.72
2018-07-11T16:47:36.428Z,82.85
2018-07-11T16:50:05.848Z,82.58
2018-07-11T16:52:34.436Z,83.04
2018-07-11T16:55:02.946Z,83.15
2018-07-11T16:57:38.974Z,82.82
2018-07-11T17:00:09.109Z,83.51
2018-07-11T17:02:38.706Z,85.29
2018-07-11T17:05:08.915Z,86.03
2018-07-11T17:07:58.203Z,86.57
2018-07-11T17:10:28.159Z,85.91
2018-07-11T17:13:27.594Z,86.13
2018-07-11T17:15:56.318Z,86.32
2018-07-11T17:18:32.292Z,87.36
2018-07-11T17:21:05.728Z,88.11
2018-07-11T17:23:34.658Z,88.03
2018-07-11T17:26:03.397Z,88.18
2018-07-11T17:28:31.687Z,87.91
2018-07-11T17:31:00.796Z,88.63
2018-07-11T17:33:29.450Z,88.32
2018-07-11T17:35:58.012Z,88.71
2018-07-11T17:38:29.499Z,88.51
2018-07-11T17:40:58.070Z,89.76
2018-07-11T17:43:34.845Z,91.04
2018-07-11T17:46:03.735Z,92.13
2018-07-11T17:48:41.103Z,91.25
2018-07-11T17:51:18.300Z,91.06
2018-07-11T17:53:53.812Z,91.67
2018-07-11T17:56:22.249Z,91.81
2018-07-11T17:58:56.082Z,91.89
2018-07-11T18:01:33.461Z,91.26
2018-07-11T18:04:41.636Z,91.97
2018-07-11T18:07:15.712Z,91.62
2018-07-11T18:09:54.434Z,90.72
2018-07-11T18:12:25.195Z,91.04
2018-07-11T18:15:00.902Z,91.67
2018-07-11T18:18:34.548Z,91.33
2018-07-11T18:21:41.830Z,91.70
2018-07-11T18:24:18.568Z,91.31
2018-07-11T18:27:00.148Z,91.11
2018-07-11T18:30:38.418Z,91.43
2018-07-11T18:33:26.428Z,89.80
2018-07-11T18:37:01.918Z,89.80
2018-07-11T18:39:39.011Z,89.41
2018-07-11T18:42:14.715Z,90.62
2018-07-11T18:45:58.796Z,89.40
2018-07-11T18:48:36.790Z,90.37
2018-07-11T18:51:13.325Z,90.82
2018-07-11T18:53:52.298Z,91.30
2018-07-11T18:56:35.710Z,91.67
2018-07-11T18:59:10.954Z,90.99
2018-07-11T19:01:55.154Z,91.84
2018-07-11T19:04:29.732Z,92.58
2018-07-11T19:07:12.953Z,92.99
2018-07-11T19:09:57.670Z,93.09
2018-07-11T19:12:31.922Z,93.29
2018-07-11T19:15:09.879Z,93.05
2018-07-11T19:17:47.113Z,92.52
2018-07-11T19:20:37.423Z,92.35
2018-07-11T19:24:22.855Z,92.66
2018-07-11T19:26:56.683Z,92.75
2018-07-11T19:29:32.268Z,92.45
2018-07-11T19:32:09.565Z,91.81
2018-07-11T19:34:50.339Z,91.60
2018-07-11T19:37:27.972Z,91.10
2018-07-11T19:40:07.691Z,91.24
2018-07-11T19:43:54.101Z,91.32
2018-07-11T19:46:35.190Z,92.38
2018-07-11T19:49:17.565Z,92.79
2018-07-11T19:52:02.662Z,92.83
2018-07-11T19:54:41.174Z,93.37
2018-07-11T19:57:09.574Z,93.54
2018-07-11T19:59:38.048Z,93.99
2018-07-11T20:02:06.523Z,93.86
2018-07-11T20:04:36.216Z,93.66
2018-07-11T20:07:06.168Z,93.74
2018-07-11T20:09:40.279Z,93.23
2018-07-11T20:12:08.633Z,92.90
2018-07-11T20:14:41.780Z,93.72
2018-07-11T20:17:10.262Z,94.11
2018-07-11T20:19:38.561Z,93.61
2018-07-11T20:22:06.954Z,93.14
2018-07-11T20:24:35.255Z,93.31
2018-07-11T20:27:05.154Z,93.38
2018-07-11T20:29:34.353Z,93.89
2018-07-11T20:32:05.806Z,94.04
2018-07-11T20:34:34.348Z,93.58
2018-07-11T20:37:03.999Z,94.32
2018-07-11T20:39:34.488Z,94.65
2018-07-11T20:42:02.851Z,94.52
2018-07-11T20:44:31.299Z,94.25
2018-07-11T20:46:59.695Z,94.17
2018-07-11T20:49:35.035Z,94.00
2018-07-11T20:52:04.915Z,93.79
2018-07-11T20:54:33.294Z,93.87
2018-07-11T20:57:01.631Z,94.06
2018-07-11T21:00:44.027Z,94.04
2018-07-11T21:03:21.531Z,94.36
2018-07-11T21:05:59.535Z,94.54
2018-07-11T21:08:39.710Z,94.30
2018-07-11T21:11:18.983Z,94.20
2018-07-11T21:16:03.218Z,94.14
2018-07-11T21:18:43.570Z,93.77
2018-07-11T21:21:12.027Z,93.04
2018-07-11T21:23:40.411Z,93.24
2018-07-11T21:26:08.696Z,93.25
2018-07-11T21:28:37.068Z,93.26
2018-07-11T21:31:05.366Z,93.61
2018-07-11T21:33:33.718Z,93.48
2018-07-11T21:36:02.014Z,94.82
2018-07-11T21:38:30.452Z,95.04
2018-07-11T21:40:58.716Z,94.86
2018-07-11T21:43:27.135Z,94.84
2018-07-11T21:45:55.810Z,95.51
2018-07-11T21:48:24.135Z,96.33
2018-07-11T21:50:52.514Z,96.79
2018-07-11T21:53:20.831Z,97.07
2018-07-11T21:55:49.115Z,97.44
2018-07-11T21:58:18.119Z,96.97
2018-07-11T22:00:46.384Z,96.80
2018-07-11T22:03:14.690Z,96.50
2018-07-11T22:05:42.988Z,96.37
2018-07-11T22:08:11.351Z,96.62
2018-07-11T22:10:40.416Z,96.81
2018-07-11T22:13:09.304Z,96.34
2018-07-11T22:15:37.616Z,96.06
2018-07-11T22:18:17.456Z,95.60
2018-07-11T22:20:44.650Z,96.00
2018-07-11T22:23:11.886Z,96.60
2018-07-11T22:25:39.087Z,96.82
2018-07-11T22:28:06.374Z,96.75
2018-07-11T22:30:33.571Z,96.61
2018-07-11T22:33:00.847Z,96.80
2018-07-11T22:35:28.931Z,96.75
2018-07-11T22:37:56.214Z,96.97
2018-07-11T22:40:23.418Z,97.19
2018-07-11T22:42:50.659Z,97.61
2018-07-11T22:45:17.923Z,97.97
2018-07-11T22:47:45.141Z,98.23
2018-07-11T22:50:12.654Z,98.40
2018-07-11T22:52:39.888Z,98.80
2018-07-11T22:55:07.122Z,98.52
2018-07-11T22:57:34.314Z,98.25
2018-07-11T23:00:01.540Z,97.75
2018-07-11T23:02:28.881Z,96.67
2018-07-11T23:04:56.111Z,95.42
2018-07-11T23:07:23.315Z,94.90
2018-07-11T23:09:50.549Z,94.94
2018-07-11T23:12:17.736Z,95.40
2018-07-11T23:14:44.967Z,95.75
2018-07-11T23:17:12.176Z,96.13
2018-07-11T23:19:39.407Z,95.99
2018-07-11T23:22:06.609Z,95.80
2018-07-11T23:24:33.843Z,95.82
2018-07-11T23:27:01.068Z,95.88
2018-07-11T23:29:28.302Z,95.84
2018-07-11T23:31:55.494Z,96.51
2018-07-11T23:34:22.728Z,96.52
2018-07-11T23:36:49.914Z,96.65
2018-07-11T23:39:17.139Z,96.99
2018-07-11T23:41:44.335Z,96.85
2018-07-11T23:44:11.579Z,96.79
2018-07-11T23:46:38.776Z,96.77
2018-07-11T23:49:06.033Z,96.89
2018-07-11T23:51:33.262Z,97.00
2018-07-11T23:54:00.510Z,97.01
2018-07-11T23:56:27.770Z,96.73
2018-07-11T23:58:54.966Z,96.90
